Andover, NJ (07821)

4:15 PM EST on January 30, 2015 (GMT -0500)
Lake Mohawk, Hillside/Springbrook | Change Station
CLOSE
Current Station
Personal Weather Station
Location: Sparta Township, NJ
Elevation: 869 ft
Nearby Weather Stations

Elev 869 ft 41.01 °N, 74.66 °W | Updated 14 seconds ago

Overcast
Overcast
29.7 °F
Feels Like 22 °F
N
8.7
Wind Variable Wind from NW
Gusts 9.8 mph

Today
High -- | Low -- °F
--% Chance of Precip.
Yesterday
High -- | Low -- °F
Precip. -- in
7:11 AM 5:13 PM
Waxing Gibbous, 85% visible
Pressure 29.91 in
Visibility 10.0 miles
Clouds Mostly Cloudy 4100 ft
Mostly Cloudy 5000 ft
Windchill 22 °F
Dew Point 12 °F
Humidity 46%
Rainfall 0.00 in
Snow Depth Not available.
UV 1.0 out of 12
Pollen .10 out of 12
Air Quality Not available.
Flu Activity Not available.
METAR KFWN 302053Z AUTO 34008G16KT 290V010 10SM BKN041 BKN050 M01/M09 A2989 RMK AO2 SLP127 60000 T10061094 53015

More Conditions Fewer Conditions

Pressure 29.91 in
Visibility 10.0 miles
Clouds Mostly Cloudy 4100 ft
Mostly Cloudy 5000 ft
Windchill 22 °F
Dew Point 12 °F
Humidity 46%
Rainfall 0.00 in
Snow Depth Not available.
UV 1.0 out of 12
Pollen .10 out of 12
Air Quality Not available.
Flu Activity Not available.
METAR KFWN 302053Z AUTO 34008G16KT 290V010 10SM BKN041 BKN050 M01/M09 A2989 RMK AO2 SLP127 60000 T10061094 53015

More Conditions Fewer Conditions

Nowcast | as of 2:41 PM EST on January 30, 2015

Scattered snow showers, of varying intensities, are pushing in from the northwest into southeast Pennsylvania and north-central New Jersey. A few of the showers may produce a brief burst of moderate to heavy snow reducing visibilities to less than 1 mile at times. Gusty northwest winds, in excess of 35 mph, will also allow for some snow drifting to occur across area roadways.

×

10-Day Weather Forecast

Almanac

Astronomy

Jan. 30, 2015 Rise Set
Actual Time
Civil Twilight
Nautical Twilight
Astronomical Twilight
Moon
Length of Visible Light
Length of Day
Tomorrow will be .
, % of the Moon is Illuminated

Today's Extremes

State Highs State Lows

Community

WunderPhotos

Upload Photos

1,791,895 photos uploaded!

WunderBlogs® & News

Nearby

Air Quality

  Air Quality AQ Index Pollutant
Not available.

Snow Depth

Station Depth Elevation

Earthquake Activity

City Distance Mag. Time & Date
Minimum magnitude displayed is 2.5.

Coastal Water Temperatures

Place Temperature

Nearby Weather Stations